Time;durP1;ratioP1;P1;durP2;ratioP2;P2;SDS_P1;SDS_P2;PMS_P1;PMS_P2;Temp;Humidity;BMP_temperature;BMP_pressure;BME280_temperature;BME280_humidity;BME280_pressure;Samples;Min_cycle;Max_cycle;Signal;HPM_P1;HPM_P2
2022/09/13 00:01:47;;;;;;;8.10;7.30;;;21.20;99.90;;;;;;10540646;28;20281;-81
2022/09/13 00:06:49;;;;;;;8.73;7.90;;;21.10;99.90;;;;;;10562549;28;20627;-81
2022/09/13 00:11:52;;;;;;;8.02;7.22;;;21.10;99.90;;;;;;10531605;28;20245;-81
2022/09/13 00:16:55;;;;;;;8.95;8.05;;;21.10;99.90;;;;;;10529969;28;20266;-81
2022/09/13 00:21:57;;;;;;;9.25;8.35;;;21.10;99.90;;;;;;10529078;28;20617;-81
2022/09/13 00:27:00;;;;;;;8.82;8.02;;;21.10;99.90;;;;;;10532309;28;20209;-81
2022/09/13 00:32:02;;;;;;;8.25;7.45;;;21.10;99.90;;;;;;10537360;28;20249;-81
2022/09/13 00:37:05;;;;;;;8.75;7.95;;;21.10;99.90;;;;;;10541214;28;20214;-81
2022/09/13 00:42:14;;;;;;;8.15;7.40;;;21.10;99.90;;;;;;10536166;28;20274;-81
2022/09/13 00:47:23;;;;;;;8.38;7.57;;;21.10;99.90;;;;;;10519045;28;20229;-81
2022/09/13 00:52:28;;;;;;;8.73;7.88;;;21.10;99.90;;;;;;10559536;28;20248;-81
2022/09/13 00:57:33;;;;;;;8.50;7.72;;;21.00;99.90;;;;;;10533743;28;20226;-81
2022/09/13 01:02:37;;;;;;;8.80;7.90;;;21.00;99.90;;;;;;10535981;28;20229;-81
2022/09/13 01:07:40;;;;;;;9.27;8.38;;;21.00;99.90;;;;;;10533687;28;20237;-81
2022/09/13 01:13:13;;;;;;;9.18;8.27;;;21.00;99.90;;;;;;10535807;28;20304;-81
2022/09/13 01:18:16;;;;;;;8.05;7.35;;;21.00;99.90;;;;;;10538109;28;20253;-81
2022/09/13 01:23:18;;;;;;;7.80;7.10;;;20.90;99.90;;;;;;10537387;28;20229;-81
2022/09/13 01:28:27;;;;;;;9.10;8.20;;;21.00;99.90;;;;;;10522034;28;20670;-80
2022/09/13 01:33:49;;;;;;;9.02;8.18;;;21.00;99.90;;;;;;10536561;28;20274;-81
2022/09/13 01:38:58;;;;;;;8.43;7.63;;;21.00;99.90;;;;;;10537098;28;20202;-81
2022/09/13 01:44:39;;;;;;;8.05;7.35;;;20.90;99.90;;;;;;10533512;28;20229;-81
2022/09/13 01:50:09;;;;;;;8.10;7.32;;;20.90;99.90;;;;;;10509760;28;20306;-81
2022/09/13 01:55:49;;;;;;;8.85;8.05;;;20.90;99.90;;;;;;10537401;28;20266;-81
2022/09/13 02:01:17;;;;;;;7.38;6.65;;;20.90;99.90;;;;;;10553741;28;20214;-81
2022/09/13 02:06:24;;;;;;;8.07;7.32;;;20.90;99.90;;;;;;10534386;28;20221;-81
2022/09/13 02:11:26;;;;;;;8.13;7.38;;;20.90;99.90;;;;;;10536634;28;20248;-81
2022/09/13 02:16:45;;;;;;;7.75;7.05;;;20.90;99.90;;;;;;10563968;28;20232;-81
2022/09/13 02:21:55;;;;;;;7.78;7.07;;;20.90;99.90;;;;;;10550070;28;20225;-81
2022/09/13 02:27:15;;;;;;;8.25;7.43;;;20.90;99.90;;;;;;10540802;28;20263;-81
2022/09/13 02:32:28;;;;;;;8.07;7.28;;;20.90;99.90;;;;;;10517717;28;20257;-81
2022/09/13 02:37:34;;;;;;;7.30;6.60;;;20.90;99.90;;;;;;10559718;28;20233;-81
2022/09/13 02:42:42;;;;;;;8.15;7.35;;;20.90;99.90;;;;;;10536411;28;20202;-81
2022/09/13 02:47:58;;;;;;;7.57;6.88;;;20.90;99.90;;;;;;10544794;28;20205;-80
2022/09/13 02:53:19;;;;;;;7.93;7.22;;;20.90;99.90;;;;;;10533411;28;20237;-81
2022/09/13 02:58:34;;;;;;;7.90;7.20;;;20.80;99.90;;;;;;10558875;28;20232;-81
2022/09/13 03:03:36;;;;;;;7.20;6.60;;;20.80;99.90;;;;;;10533187;28;21052;-81
2022/09/13 03:08:39;;;;;;;7.82;7.13;;;20.80;99.90;;;;;;10514353;28;20640;-81
2022/09/13 03:14:07;;;;;;;7.43;6.72;;;20.80;99.90;;;;;;10533031;28;20649;-81
2022/09/13 03:19:16;;;;;;;7.93;7.07;;;20.80;99.90;;;;;;10506214;28;20276;-81
2022/09/13 03:24:40;;;;;;;7.45;6.75;;;20.80;99.90;;;;;;10524833;28;20233;-81
2022/09/13 03:30:01;;;;;;;7.75;6.95;;;20.80;99.90;;;;;;10521859;28;20257;-81
2022/09/13 03:35:16;;;;;;;7.50;6.72;;;20.70;99.90;;;;;;10533696;28;20266;-81
2022/09/13 03:40:42;;;;;;;8.10;7.30;;;20.70;99.90;;;;;;10564866;27;20267;-81
2022/09/13 03:45:50;;;;;;;7.50;6.80;;;20.70;99.90;;;;;;10531772;28;20225;-81
2022/09/13 03:50:53;;;;;;;7.93;7.13;;;20.70;99.90;;;;;;10536011;28;20245;-81
2022/09/13 03:55:55;;;;;;;7.68;6.97;;;20.70;99.90;;;;;;10531978;28;20670;-81
2022/09/13 04:00:58;;;;;;;8.07;7.28;;;20.70;99.90;;;;;;10549541;28;20257;-81
2022/09/13 04:06:00;;;;;;;7.10;6.40;;;20.70;99.90;;;;;;10528206;28;20286;-81
2022/09/13 04:11:03;;;;;;;7.65;6.95;;;20.70;99.90;;;;;;10531328;28;20257;-81
2022/09/13 04:16:06;;;;;;;6.95;6.10;;;20.70;99.90;;;;;;10532877;28;20225;-81
2022/09/13 04:21:09;;;;;;;11.40;10.03;;;20.70;99.90;;;;;;10530433;28;20261;-81
2022/09/13 04:26:11;;;;;;;13.00;11.27;;;10.60;99.90;;;;;;10531139;28;20229;-80
2022/09/13 04:31:13;;;;;;;12.30;9.67;;;9.00;99.90;;;;;;10511604;28;20322;-81
2022/09/13 04:36:16;;;;;;;7.97;6.97;;;13.30;99.90;;;;;;10530819;28;20213;-81
2022/09/13 04:41:18;;;;;;;9.30;6.23;;;17.10;99.90;;;;;;10530291;28;20666;-81
2022/09/13 04:46:21;;;;;;;8.20;6.33;;;18.50;99.90;;;;;;10558467;28;20272;-81
2022/09/13 04:51:24;;;;;;;8.13;5.90;;;19.30;99.90;;;;;;10574114;28;20248;-81
2022/09/13 04:56:26;;;;;;;8.77;5.63;;;19.60;99.90;;;;;;10571833;28;20285;-81
2022/09/13 05:01:29;;;;;;;6.00;5.50;;;19.90;99.90;;;;;;10572880;28;20213;-81
2022/09/13 05:06:31;;;;;;;7.45;6.07;;;20.10;99.90;;;;;;10516736;28;20577;-81
2022/09/13 05:11:33;;;;;;;5.72;5.20;;;20.30;99.90;;;;;;10513480;28;20267;-81
2022/09/13 05:16:36;;;;;;;6.70;5.88;;;20.30;99.90;;;;;;10535013;28;20287;-81
2022/09/13 05:21:39;;;;;;;9.43;5.47;;;20.40;99.90;;;;;;10536352;28;20253;-81
2022/09/13 05:26:41;;;;;;;9.80;5.05;;;20.40;99.90;;;;;;10550736;28;20228;-81
2022/09/13 05:31:44;;;;;;;6.32;5.53;;;20.40;99.90;;;;;;10582042;28;20245;-82
2022/09/13 05:36:49;;;;;;;6.20;5.60;;;20.50;99.90;;;;;;10580195;28;20197;-82
2022/09/13 05:41:56;;;;;;;6.30;5.40;;;19.80;99.90;;;;;;10572962;28;20623;-82
2022/09/13 05:46:58;;;;;;;6.07;5.47;;;20.30;99.90;;;;;;10571731;28;20731;-82
2022/09/13 05:52:01;;;;;;;12.45;10.02;;;20.50;99.90;;;;;;10542329;28;20653;-82
2022/09/13 05:57:03;;;;;;;15.32;9.02;;;19.60;99.90;;;;;;10535808;28;20237;-81
2022/09/13 06:02:07;;;;;;;8.93;7.68;;;19.20;99.90;;;;;;10520392;28;20652;-81
2022/09/13 06:07:13;;;;;;;10.80;6.40;;;19.60;99.90;;;;;;10536210;28;20251;-80
2022/09/13 06:12:16;;;;;;;14.32;8.50;;;19.90;99.90;;;;;;10529264;28;20684;-81
2022/09/13 06:17:18;;;;;;;15.07;8.52;;;19.60;99.90;;;;;;10531305;28;20695;-82
2022/09/13 06:22:20;;;;;;;11.60;8.00;;;20.10;99.90;;;;;;10533627;28;20671;-81
2022/09/13 06:27:23;;;;;;;18.92;10.75;;;20.60;99.90;;;;;;10529839;28;20288;-82
2022/09/13 06:32:25;;;;;;;20.27;12.45;;;21.00;99.90;;;;;;10557910;28;20249;-82
2022/09/13 06:37:28;;;;;;;20.00;14.13;;;21.40;99.90;;;;;;10534176;28;20229;-82
2022/09/13 06:42:33;;;;;;;21.05;16.33;;;21.70;99.90;;;;;;10533973;28;20238;-81
2022/09/13 06:47:36;;;;;;;21.20;15.68;;;21.90;99.90;;;;;;10533809;28;20241;-82
2022/09/13 06:52:38;;;;;;;20.13;15.68;;;22.10;99.90;;;;;;10535169;28;20249;-82
2022/09/13 06:57:41;;;;;;;18.98;16.15;;;22.20;99.90;;;;;;10534721;28;20679;-82
2022/09/13 07:02:43;;;;;;;21.33;15.85;;;22.20;99.90;;;;;;10533962;28;20617;-80
2022/09/13 07:07:46;;;;;;;20.60;15.18;;;22.30;99.90;;;;;;10552785;28;20659;-80
2022/09/13 07:12:49;;;;;;;19.45;15.38;;;22.50;99.90;;;;;;10562877;28;20663;-81
2022/09/13 07:17:51;;;;;;;20.75;15.50;;;22.50;99.90;;;;;;10533910;28;20278;-81
2022/09/13 07:22:53;;;;;;;24.75;16.15;;;22.60;99.90;;;;;;10532507;28;20228;-81
2022/09/13 07:27:56;;;;;;;20.05;15.10;;;22.70;99.90;;;;;;10546357;28;20244;-81
2022/09/13 07:32:58;;;;;;;20.98;15.48;;;22.60;99.90;;;;;;10539021;28;20267;-81
2022/09/13 07:38:00;;;;;;;21.30;15.32;;;22.70;99.90;;;;;;10532588;28;20247;-81
2022/09/13 07:43:03;;;;;;;18.10;14.43;;;22.70;99.90;;;;;;10529991;28;20240;-81
2022/09/13 07:48:05;;;;;;;19.45;14.45;;;22.90;99.90;;;;;;10563882;28;20674;-80
2022/09/13 07:53:08;;;;;;;18.08;15.05;;;22.90;99.90;;;;;;10549038;28;20782;-80
2022/09/13 07:58:10;;;;;;;18.88;15.35;;;22.90;99.90;;;;;;10531167;28;20224;-81
2022/09/13 08:03:12;;;;;;;17.27;14.27;;;22.90;99.90;;;;;;10545307;28;20224;-81
2022/09/13 08:08:15;;;;;;;14.27;12.77;;;23.10;99.90;;;;;;10567168;28;20228;-81
2022/09/13 08:13:17;;;;;;;19.27;14.70;;;23.10;99.90;;;;;;10529644;28;20318;-80
2022/09/13 08:18:20;;;;;;;18.80;13.73;;;23.20;99.90;;;;;;10528231;28;20330;-82
2022/09/13 08:23:24;;;;;;;16.83;14.45;;;22.90;99.90;;;;;;10527977;28;20832;-82
2022/09/13 08:28:27;;;;;;;18.17;14.73;;;22.90;99.90;;;;;;10538616;28;20288;-81
2022/09/13 08:33:29;;;;;;;15.25;12.77;;;22.90;99.90;;;;;;10541220;28;20257;-82
2022/09/13 08:38:32;;;;;;;11.32;8.43;;;22.30;99.90;;;;;;10514690;28;20226;-81
2022/09/13 08:43:53;;;;;;;8.30;6.75;;;21.40;99.90;;;;;;10490334;28;20283;-81
2022/09/13 08:49:01;;;;;;;6.40;5.80;;;21.60;99.90;;;;;;10490457;28;20291;-81
2022/09/13 08:54:04;;;;;;;5.97;5.43;;;21.70;99.90;;;;;;10513300;28;20226;-81
2022/09/13 08:59:31;;;;;;;6.95;6.25;;;21.90;99.90;;;;;;10498190;28;20198;-81
2022/09/13 09:04:45;;;;;;;6.88;5.70;;;21.90;99.90;;;;;;10497410;28;20613;-81
2022/09/13 09:09:53;;;;;;;8.15;5.57;;;21.90;99.90;;;;;;10498138;28;20685;-81
2022/09/13 09:15:11;;;;;;;8.30;6.65;;;21.70;99.90;;;;;;10513575;28;20618;-81
2022/09/13 09:20:35;;;;;;;5.65;5.15;;;21.70;99.90;;;;;;10497867;28;20272;-81
2022/09/13 09:25:38;;;;;;;6.50;5.70;;;21.70;99.90;;;;;;10497871;28;20666;-81
2022/09/13 09:31:03;;;;;;;5.75;5.18;;;21.80;99.90;;;;;;10495818;28;20276;-81
2022/09/13 09:36:32;;;;;;;8.30;5.47;;;21.90;99.90;;;;;;10489050;28;20238;-81
2022/09/13 09:41:37;;;;;;;9.75;6.90;;;21.40;99.90;;;;;;10475050;28;20249;-81
2022/09/13 09:46:41;;;;;;;9.38;7.63;;;21.60;99.90;;;;;;10497113;28;20230;-81
2022/09/13 09:51:44;;;;;;;6.47;5.88;;;21.10;99.90;;;;;;10494780;28;20265;-81
2022/09/13 09:56:54;;;;;;;6.50;5.68;;;21.10;99.90;;;;;;10494607;28;20226;-81
2022/09/13 10:01:57;;;;;;;6.13;5.28;;;21.10;99.90;;;;;;10493557;28;20256;-81
2022/09/13 10:07:23;;;;;;;5.55;5.05;;;20.90;99.90;;;;;;10496374;28;20226;-81
2022/09/13 10:12:28;;;;;;;7.95;5.90;;;21.20;99.90;;;;;;10494917;28;20291;-81
2022/09/13 10:17:31;;;;;;;5.90;5.38;;;21.40;99.90;;;;;;10510393;28;20253;-81
2022/09/13 10:22:34;;;;;;;5.47;4.97;;;21.60;99.90;;;;;;10495205;28;20194;-81
2022/09/13 10:27:41;;;;;;;8.02;5.07;;;21.40;99.90;;;;;;10494833;28;20280;-81
2022/09/13 10:32:55;;;;;;;6.80;6.10;;;21.10;99.90;;;;;;10492666;28;20254;-81
2022/09/13 10:37:57;;;;;;;7.45;5.63;;;21.40;99.90;;;;;;10509450;28;20268;-81
2022/09/13 10:43:03;;;;;;;9.18;6.78;;;21.60;99.90;;;;;;10509613;28;20237;-81
2022/09/13 10:48:15;;;;;;;12.73;6.57;;;20.80;99.90;;;;;;10493797;28;20229;-81
2022/09/13 10:53:39;;;;;;;11.68;7.72;;;21.10;99.90;;;;;;10493843;28;20279;-81
2022/09/13 10:58:42;;;;;;;6.32;5.35;;;21.10;99.90;;;;;;10527118;28;20206;-81
2022/09/13 11:03:59;;;;;;;14.68;8.25;;;21.30;99.90;;;;;;10553553;28;20237;-82
2022/09/13 11:09:18;;;;;;;66.82;14.70;;;20.60;99.90;;;;;;10543354;28;20603;-81
2022/09/13 11:14:39;;;;;;;43.80;14.18;;;22.70;99.90;;;;;;10550544;28;20240;-81
2022/09/13 11:19:59;;;;;;;51.53;20.20;;;23.00;99.90;;;;;;10532667;28;20237;-81
2022/09/13 11:25:24;;;;;;;55.95;21.48;;;23.00;99.90;;;;;;10531608;28;20753;-81
2022/09/13 11:30:29;;;;;;;39.00;20.45;;;23.90;99.90;;;;;;10553742;28;20228;-81
2022/09/13 11:36:03;;;;;;;42.03;22.60;;;23.70;99.90;;;;;;10559504;28;20253;-81
2022/09/13 11:41:27;;;;;;;37.75;22.10;;;23.20;99.90;;;;;;10521175;22;20243;-89
2022/09/13 11:46:58;;;;;;;32.55;23.52;;;24.10;99.90;;;;;;10428530;28;20230;-89
2022/09/13 11:52:07;;;;;;;36.80;23.90;;;;;;;;;;10236220;29;20258;-88
2022/09/13 11:57:22;;;;;;;38.10;24.83;;;24.50;99.90;;;;;;10226990;29;20701;-89
2022/09/13 12:03:05;;;;;;;37.25;23.27;;;24.70;99.90;;;;;;10227365;29;20268;-89
2022/09/13 12:08:25;;;;;;;36.25;23.80;;;24.80;99.90;;;;;;10226928;29;20332;-89
2022/09/13 12:13:40;;;;;;;36.70;24.58;;;24.80;99.80;;;;;;10228321;28;20297;-89
2022/09/13 12:18:47;;;;;;;36.58;24.98;;;24.80;99.80;;;;;;10248774;28;20245;-89
2022/09/13 12:24:17;;;;;;;16.55;11.38;;;24.80;99.90;;;;;;10241005;28;20233;-88
2022/09/13 12:29:48;;;;;;;10.77;8.88;;;24.70;99.90;;;;;;10411572;28;20300;-95
2022/09/13 12:35:02;;;;;;;11.23;9.30;;;23.80;99.90;;;;;;10452257;28;20254;-94
2022/09/13 12:40:30;;;;;;;13.80;10.00;;;23.30;99.90;;;;;;10439569;28;20298;-95
2022/09/13 12:45:45;;;;;;;8.63;7.32;;;23.00;99.90;;;;;;10413097;28;20288;-88
2022/09/13 12:51:13;;;;;;;12.43;7.70;;;21.60;99.90;;;;;;10435571;28;20226;-89
2022/09/13 12:56:37;;;;;;;15.70;11.52;;;22.90;99.90;;;;;;10456872;28;20697;-88
2022/09/13 13:01:50;;;;;;;20.40;16.35;;;23.60;99.90;;;;;;10418213;28;20757;-88
2022/09/13 13:06:57;;;;;;;24.40;17.58;;;24.10;99.90;;;;;;10434502;28;20765;-88
2022/09/13 13:12:00;;;;;;;20.23;15.23;;;24.30;99.90;;;;;;10434975;28;20251;-88
2022/09/13 13:17:33;;;;;;;25.85;19.80;;;24.70;99.90;;;;;;10439431;28;20227;-89
2022/09/13 13:22:42;;;;;;;27.70;20.52;;;24.70;99.90;;;;;;10434559;28;20269;-88
2022/09/13 13:27:48;;;;;;;26.88;19.92;;;24.80;99.90;;;;;;10447246;28;20239;-89
2022/09/13 13:33:15;;;;;;;20.42;17.13;;;24.90;99.90;;;;;;10448737;28;20716;-96
2022/09/13 13:38:56;;;;;;;14.13;10.35;;;23.60;99.90;;;;;;10438179;28;20195;-96
2022/09/13 13:44:00;;;;;;;10.30;9.20;;;22.70;99.90;;;;;;10388404;28;20235;-95
2022/09/13 13:49:31;;;;;;;18.77;8.60;;;21.80;99.90;;;;;;10418701;28;20202;-96
2022/09/13 13:54:46;;;;;;;11.82;9.80;;;21.70;99.90;;;;;;10427092;28;20253;-95
2022/09/13 13:59:50;;;;;;;8.32;7.30;;;22.30;99.90;;;;;;10420703;28;20203;-95
2022/09/13 14:05:17;;;;;;;12.68;8.38;;;21.70;99.90;;;;;;10437551;28;20252;-95
2022/09/13 14:10:26;;;;;;;8.45;7.57;;;22.10;99.90;;;;;;10450383;28;20203;-93
2022/09/13 14:15:58;;;;;;;7.25;5.93;;;22.20;99.90;;;;;;10438894;28;20766;-96
2022/09/13 14:21:04;;;;;;;10.70;7.25;;;21.70;99.90;;;;;;10421012;28;20199;-95
2022/09/13 14:26:06;;;;;;;9.23;6.93;;;21.00;99.90;;;;;;10421834;28;20210;-95
2022/09/13 14:31:19;;;;;;;10.75;7.68;;;20.50;99.90;;;;;;10421980;28;20253;-96
2022/09/13 14:36:22;;;;;;;8.52;7.72;;;21.50;99.90;;;;;;10438570;28;20245;-95
2022/09/13 14:41:36;;;;;;;8.05;7.25;;;21.90;99.90;;;;;;10073464;28;9999830;-95
2022/09/13 14:46:43;;;;;;;10.20;8.10;;;21.80;99.90;;;;;;10435940;28;20249;-94
2022/09/13 14:52:06;;;;;;;10.68;7.60;;;21.90;99.90;;;;;;10436706;28;20207;-93
2022/09/13 14:57:22;;;;;;;8.82;7.38;;;22.00;99.90;;;;;;10436990;28;20203;-95
2022/09/13 15:02:30;;;;;;;11.18;8.15;;;21.90;99.90;;;;;;10438665;28;20221;-94
2022/09/13 15:07:35;;;;;;;9.50;7.25;;;21.70;99.90;;;;;;10420766;28;20206;-95
2022/09/13 15:12:57;;;;;;;8.70;7.85;;;21.60;99.90;;;;;;10420849;28;20219;-96
2022/09/13 15:18:24;;;;;;;9.60;7.53;;;21.80;99.90;;;;;;10436406;28;20199;-94
2022/09/13 15:23:37;;;;;;;8.13;6.93;;;21.90;99.90;;;;;;10419670;28;20233;-95
2022/09/13 15:28:40;;;;;;;8.10;7.20;;;21.80;99.90;;;;;;10417358;28;20298;-96
2022/09/13 15:33:42;;;;;;;12.60;8.90;;;21.60;99.90;;;;;;10426078;28;20292;-91
2022/09/13 15:38:59;;;;;;;16.48;14.77;;;22.20;99.90;;;;;;10445478;28;20199;-93
2022/09/13 15:44:04;;;;;;;20.75;17.23;;;;;;;;;;10456630;28;20234;-92
2022/09/13 15:49:14;;;;;;;28.85;22.50;;;23.50;99.90;;;;;;10440242;28;20307;-93
2022/09/13 15:54:16;;;;;;;29.48;23.00;;;23.80;99.90;;;;;;10440990;28;20294;-93
2022/09/13 15:59:20;;;;;;;29.33;23.17;;;24.00;99.90;;;;;;10458103;28;20222;-92
2022/09/13 16:04:24;;;;;;;16.45;13.27;;;24.10;99.90;;;;;;10436172;28;20207;-95
2022/09/13 16:09:26;;;;;;;15.38;12.02;;;23.30;99.90;;;;;;10446139;28;20280;-96
2022/09/13 16:14:28;;;;;;;10.35;8.80;;;22.70;99.90;;;;;;10446145;28;20796;-92
2022/09/13 16:19:32;;;;;;;16.15;10.05;;;22.30;99.90;;;;;;10444980;28;20239;-88
2022/09/13 16:24:36;;;;;;;18.73;12.10;;;21.50;99.90;;;;;;10457531;28;20298;-88
2022/09/13 16:29:39;;;;;;;21.52;13.25;;;22.70;99.90;;;;;;10474429;28;20242;-88
2022/09/13 16:34:42;;;;;;;23.90;18.67;;;23.20;99.90;;;;;;10456809;28;20266;-89
2022/09/13 16:39:44;;;;;;;32.00;24.25;;;22.80;99.90;;;;;;10437672;28;20265;-88
2022/09/13 16:44:47;;;;;;;35.30;27.10;;;23.60;99.90;;;;;;10436361;28;20237;-89
2022/09/13 16:49:49;;;;;;;34.85;28.17;;;23.90;99.90;;;;;;10454854;28;20277;-89
2022/09/13 16:54:52;;;;;;;41.13;31.02;;;24.10;99.90;;;;;;10429742;28;20258;-89
2022/09/13 16:59:57;;;;;;;40.50;32.17;;;24.20;99.90;;;;;;10454560;28;20849;-89
2022/09/13 17:05:00;;;;;;;39.97;31.70;;;24.20;99.90;;;;;;10434533;28;20761;-90
2022/09/13 17:10:05;;;;;;;44.83;30.70;;;24.20;99.90;;;;;;10431545;28;20235;-90
2022/09/13 17:15:09;;;;;;;42.08;32.17;;;24.20;99.90;;;;;;10440977;28;20297;-90
2022/09/13 17:20:12;;;;;;;41.63;32.15;;;24.10;99.90;;;;;;10471861;28;20234;-89
2022/09/13 17:25:15;;;;;;;39.03;31.63;;;23.90;99.90;;;;;;10437113;28;20246;-90
2022/09/13 17:30:18;;;;;;;40.03;30.58;;;24.10;99.90;;;;;;10454942;28;20253;-89
2022/09/13 17:35:21;;;;;;;41.35;30.70;;;24.00;99.90;;;;;;10437772;28;20258;-90
2022/09/13 17:40:25;;;;;;;38.10;29.40;;;24.10;99.90;;;;;;10454505;28;20676;-89
2022/09/13 17:45:29;;;;;;;37.45;28.33;;;24.20;99.90;;;;;;10425842;28;20207;-90
2022/09/13 17:50:31;;;;;;;41.03;30.23;;;24.10;99.90;;;;;;10436999;28;20260;-91
2022/09/13 17:55:34;;;;;;;38.80;29.73;;;24.10;99.90;;;;;;10449428;28;20307;-90
2022/09/13 18:00:37;;;;;;;32.05;26.33;;;24.00;99.90;;;;;;10452466;28;20273;-90
2022/09/13 18:05:41;;;;;;;33.92;27.50;;;23.90;99.90;;;;;;10444296;28;20229;-90
2022/09/13 18:10:44;;;;;;;31.08;25.15;;;24.10;99.90;;;;;;10446115;28;20234;-90
2022/09/13 18:16:15;;;;;;;28.48;21.88;;;24.10;99.90;;;;;;10445728;28;20262;-90
2022/09/13 18:21:24;;;;;;;34.20;25.73;;;23.80;99.90;;;;;;10459258;28;20241;-90
2022/09/13 18:26:35;;;;;;;32.08;25.55;;;23.80;99.90;;;;;;10450027;28;20230;-90
2022/09/13 18:31:40;;;;;;;21.67;15.73;;;23.90;99.90;;;;;;10390242;28;20239;-90
2022/09/13 18:36:43;;;;;;;21.27;15.98;;;22.90;99.90;;;;;;10391116;28;20314;-90
2022/09/13 18:41:47;;;;;;;18.60;15.27;;;22.90;99.90;;;;;;10352693;28;20247;-90
2022/09/13 18:46:52;;;;;;;21.08;17.80;;;23.30;99.90;;;;;;10353170;28;20236;-90
2022/09/13 18:51:55;;;;;;;22.20;18.90;;;23.30;99.90;;;;;;10368402;28;20235;-90
2022/09/13 18:56:59;;;;;;;15.07;13.57;;;23.40;99.90;;;;;;10384672;28;20282;-90
2022/09/13 19:02:05;;;;;;;19.60;16.58;;;19.70;99.90;;;;;;10353885;28;20236;-90
2022/09/13 19:07:08;;;;;;;21.58;16.55;;;17.20;99.90;;;;;;10369967;28;20196;-88
2022/09/13 19:12:12;;;;;;;19.67;15.95;;;16.60;99.90;;;;;;10349466;28;20244;-90
2022/09/13 19:17:15;;;;;;;20.02;17.13;;;20.40;99.90;;;;;;10334400;28;20248;-89
2022/09/13 19:22:18;;;;;;;22.30;17.60;;;17.20;99.90;;;;;;10344344;28;20278;-88
2022/09/13 19:27:21;;;;;;;24.73;18.50;;;16.10;99.90;;;;;;10368723;28;20229;-89
2022/09/13 19:32:24;;;;;;;28.70;21.63;;;;;;;;;;10384304;28;20235;-89
2022/09/13 19:37:28;;;;;;;33.00;22.87;;;14.60;99.90;;;;;;10352571;28;20783;-89
2022/09/13 19:42:31;;;;;;;31.40;23.53;;;14.50;99.90;;;;;;10390137;28;20269;-89
2022/09/13 19:47:34;;;;;;;34.63;25.03;;;14.30;99.90;;;;;;10350800;28;20231;-90
2022/09/13 19:52:57;;;;;;;54.10;23.87;;;14.10;99.90;;;;;;10354694;28;20240;-88
2022/09/13 19:57:59;;;;;;;47.13;28.00;;;13.80;99.90;;;;;;10356062;28;20212;-89
2022/09/13 20:03:02;;;;;;;61.67;24.03;;;13.80;99.90;;;;;;10367926;28;20228;-89
2022/09/13 20:08:05;;;;;;;30.20;21.70;;;13.50;99.90;;;;;;10369782;28;20682;-89
2022/09/13 20:13:08;;;;;;;31.20;23.57;;;13.40;99.90;;;;;;10361683;28;20235;-89
2022/09/13 20:18:14;;;;;;;75.80;21.10;;;13.30;99.90;;;;;;10374894;28;20686;-88
2022/09/13 20:23:17;;;;;;;31.83;26.57;;;13.20;99.90;;;;;;10349917;28;20314;-89
2022/09/13 20:28:19;;;;;;;24.47;21.77;;;17.40;99.90;;;;;;10321796;28;20264;-89
2022/09/13 20:33:22;;;;;;;23.20;20.30;;;20.00;99.90;;;;;;10330036;28;20248;-88
2022/09/13 20:38:24;;;;;;;22.92;20.17;;;21.30;99.90;;;;;;10347269;28;20298;-89
2022/09/13 20:43:27;;;;;;;23.40;20.00;;;21.90;99.90;;;;;;10308071;28;20264;-89
2022/09/13 20:48:31;;;;;;;22.80;20.13;;;22.00;99.90;;;;;;10324338;28;20707;-89
2022/09/13 20:53:34;;;;;;;23.08;20.65;;;22.30;99.90;;;;;;10317844;28;20252;-89
2022/09/13 20:58:37;;;;;;;21.75;19.42;;;22.50;99.90;;;;;;10332214;28;20244;-89
2022/09/13 21:03:41;;;;;;;23.88;20.63;;;22.50;99.90;;;;;;10334320;28;20248;-90
2022/09/13 21:08:48;;;;;;;22.10;19.73;;;22.60;99.90;;;;;;10349238;28;20255;-91
2022/09/13 21:13:53;;;;;;;22.13;19.65;;;22.70;99.90;;;;;;10308025;28;20292;-90
2022/09/13 21:18:56;;;;;;;23.08;20.42;;;22.70;99.90;;;;;;10289588;28;20241;-90
2022/09/13 21:23:59;;;;;;;23.52;19.58;;;22.70;99.90;;;;;;10291781;28;20308;-91
2022/09/13 21:29:02;;;;;;;21.92;19.63;;;22.70;99.90;;;;;;10318377;28;20251;-90
2022/09/13 21:34:10;;;;;;;20.10;17.83;;;22.70;99.90;;;;;;10373499;28;20326;-90
2022/09/13 21:39:15;;;;;;;21.33;19.10;;;22.70;99.90;;;;;;10355754;28;20212;-91
2022/09/13 21:44:17;;;;;;;21.40;19.00;;;22.70;99.90;;;;;;10333016;28;20240;-91
2022/09/13 21:49:20;;;;;;;20.88;18.20;;;22.60;99.90;;;;;;10346773;28;20772;-90
2022/09/13 21:54:23;;;;;;;21.20;18.38;;;22.60;99.90;;;;;;10318155;28;20286;-91
2022/09/13 21:59:25;;;;;;;23.20;19.70;;;22.60;99.90;;;;;;10371906;28;20200;-91
2022/09/13 22:04:28;;;;;;;20.60;18.40;;;22.60;99.90;;;;;;10371203;28;21038;-91
2022/09/13 22:09:30;;;;;;;22.17;19.40;;;22.60;99.90;;;;;;10357620;28;20207;-90
2022/09/13 22:14:32;;;;;;;20.25;18.02;;;22.60;99.90;;;;;;10395509;28;20652;-91
2022/09/13 22:19:35;;;;;;;22.58;18.77;;;22.60;99.90;;;;;;10397334;28;20196;-88
2022/09/13 22:24:37;;;;;;;20.98;18.30;;;22.50;99.90;;;;;;10358345;28;20263;-89
2022/09/13 22:29:40;;;;;;;19.92;17.90;;;22.60;99.90;;;;;;10362599;28;20236;-88
2022/09/13 22:34:43;;;;;;;21.17;18.95;;;22.50;99.90;;;;;;10359306;28;20266;-91
2022/09/13 22:39:46;;;;;;;21.33;18.77;;;22.50;99.90;;;;;;10353369;28;20229;-91
2022/09/13 22:44:48;;;;;;;20.88;18.55;;;22.50;99.90;;;;;;10375958;28;20281;-90
2022/09/13 22:49:51;;;;;;;21.10;18.77;;;22.40;99.90;;;;;;10383198;28;20224;-91
2022/09/13 22:54:53;;;;;;;22.55;18.73;;;22.40;99.90;;;;;;10370751;28;20310;-91
2022/09/13 22:59:55;;;;;;;20.60;18.40;;;22.40;99.90;;;;;;10361506;28;20281;-90
2022/09/13 23:04:58;;;;;;;21.58;18.35;;;22.30;99.90;;;;;;10373761;28;20920;-91
2022/09/13 23:10:00;;;;;;;19.88;17.77;;;22.30;99.90;;;;;;10351838;28;20235;-91
2022/09/13 23:15:03;;;;;;;20.08;17.98;;;22.40;99.90;;;;;;10352252;28;20251;-91
2022/09/13 23:20:06;;;;;;;21.15;18.80;;;22.40;99.90;;;;;;10352083;28;20240;-91
2022/09/13 23:25:08;;;;;;;19.98;17.42;;;22.40;99.90;;;;;;10369070;28;20681;-91
2022/09/13 23:30:11;;;;;;;19.70;17.73;;;22.30;99.90;;;;;;10369486;28;20259;-91
2022/09/13 23:35:14;;;;;;;19.92;17.77;;;22.30;99.90;;;;;;10369474;28;20313;-91
2022/09/13 23:40:16;;;;;;;21.92;18.70;;;22.30;99.90;;;;;;10350812;28;20258;-91
2022/09/13 23:45:19;;;;;;;19.55;17.20;;;22.30;99.90;;;;;;10369027;28;20281;-91
2022/09/13 23:50:21;;;;;;;19.23;17.15;;;22.30;99.90;;;;;;10369015;28;20224;-91
2022/09/13 23:55:23;;;;;;;19.27;17.30;;;22.20;99.90;;;;;;10369202;28;20666;-91
